createdAt,value
2022-12-26T00:00:58.637Z,9.00
2022-12-26T00:03:26.277Z,9.23
2022-12-26T00:05:54.457Z,7.38
2022-12-26T00:08:21.388Z,6.28
2022-12-26T00:10:48.357Z,6.63
2022-12-26T00:13:38.798Z,6.32
2022-12-26T00:16:10.416Z,4.90
2022-12-26T00:18:38.785Z,6.35
2022-12-26T00:21:07.579Z,4.53
2022-12-26T00:23:35.782Z,5.68
2022-12-26T00:26:14.436Z,6.22
2022-12-26T00:28:41.903Z,5.18
2022-12-26T00:31:14.823Z,4.72
2022-12-26T00:33:42.898Z,5.93
2022-12-26T00:36:16.874Z,6.03
2022-12-26T00:38:45.218Z,5.22
2022-12-26T00:41:14.185Z,4.47
2022-12-26T00:43:41.562Z,4.45
2022-12-26T00:46:09.378Z,3.33
2022-12-26T00:48:36.617Z,2.90
2022-12-26T00:51:05.194Z,3.88
2022-12-26T00:53:32.140Z,4.15
2022-12-26T00:55:59.489Z,3.72
2022-12-26T00:58:26.737Z,2.88
2022-12-26T01:00:54.656Z,3.35
2022-12-26T01:03:22.244Z,3.47
2022-12-26T01:05:51.508Z,3.70
2022-12-26T01:08:24.104Z,3.10
2022-12-26T01:10:52.577Z,3.30
2022-12-26T01:13:19.915Z,2.63
2022-12-26T01:15:54.357Z,3.63
2022-12-26T01:18:22.018Z,4.13
2022-12-26T01:20:49.232Z,3.28
2022-12-26T01:23:18.013Z,3.65
2022-12-26T01:26:18.530Z,3.45
2022-12-26T01:28:35.444Z,4.30
2022-12-26T01:31:06.598Z,2.92
2022-12-26T01:33:33.677Z,3.33
2022-12-26T01:36:00.872Z,3.40
2022-12-26T01:38:28.463Z,3.72
2022-12-26T01:41:14.155Z,3.33
2022-12-26T01:43:52.417Z,3.60
2022-12-26T01:46:38.310Z,2.75
2022-12-26T01:49:41.499Z,4.53
2022-12-26T01:52:15.706Z,3.05
2022-12-26T01:54:47.577Z,3.08
2022-12-26T01:57:24.830Z,3.20
2022-12-26T01:59:53.700Z,2.22
2022-12-26T02:02:22.343Z,3.10
2022-12-26T02:05:10.596Z,2.63
2022-12-26T02:07:41.944Z,3.08
2022-12-26T02:10:14.253Z,2.83
2022-12-26T02:12:41.418Z,3.88
2022-12-26T02:15:15.497Z,2.83
2022-12-26T02:17:43.737Z,3.03
2022-12-26T02:20:19.145Z,2.97
2022-12-26T02:23:18.377Z,2.58
2022-12-26T02:25:54.443Z,2.88
2022-12-26T02:28:40.135Z,2.83
2022-12-26T02:31:27.784Z,3.35
2022-12-26T02:34:19.816Z,2.58
2022-12-26T02:37:08.718Z,4.68
2022-12-26T02:40:13.260Z,2.58
2022-12-26T02:43:10.430Z,2.97
2022-12-26T02:46:05.357Z,3.08
2022-12-26T02:48:57.816Z,4.40
2022-12-26T02:51:55.580Z,2.78
2022-12-26T02:54:53.810Z,4.45
2022-12-26T02:57:43.890Z,2.67
2022-12-26T03:00:37.956Z,2.05
2022-12-26T03:03:32.003Z,2.13
2022-12-26T03:06:36.673Z,2.15
2022-12-26T03:09:33.845Z,2.42
2022-12-26T03:12:41.762Z,3.35
2022-12-26T03:15:15.566Z,2.58
2022-12-26T03:17:46.879Z,4.15
2022-12-26T03:20:33.346Z,4.45
2022-12-26T03:23:10.741Z,3.97
2022-12-26T03:26:14.144Z,3.20
2022-12-26T03:28:42.474Z,2.40
2022-12-26T03:31:12.735Z,2.10
2022-12-26T03:34:24.802Z,2.25
2022-12-26T03:37:25.308Z,3.28
2022-12-26T03:40:43.337Z,3.55
2022-12-26T03:43:51.277Z,3.28
2022-12-26T03:46:44.535Z,3.83
2022-12-26T03:49:45.953Z,3.25
2022-12-26T03:52:41.084Z,3.20
2022-12-26T03:55:54.943Z,3.63
2022-12-26T03:58:56.325Z,4.80
2022-12-26T04:01:45.981Z,3.03
2022-12-26T04:04:34.029Z,3.08
2022-12-26T04:07:30.692Z,2.47
2022-12-26T04:10:35.661Z,4.03
2022-12-26T04:13:24.838Z,3.15
2022-12-26T04:16:17.428Z,1.98
2022-12-26T04:19:25.832Z,3.42
2022-12-26T04:22:23.544Z,2.97
2022-12-26T04:25:50.817Z,3.17
2022-12-26T04:28:34.589Z,5.07
2022-12-26T04:31:31.792Z,2.17
2022-12-26T04:34:20.748Z,2.15
2022-12-26T04:37:20.268Z,2.17
2022-12-26T04:40:09.672Z,3.45
2022-12-26T04:42:57.192Z,1.95
2022-12-26T04:45:25.167Z,3.15
2022-12-26T04:48:10.733Z,1.70
2022-12-26T04:50:50.584Z,2.28
2022-12-26T04:53:17.818Z,2.40
2022-12-26T04:55:45.097Z,2.15
2022-12-26T04:58:12.741Z,3.67
2022-12-26T05:00:40.646Z,3.78
2022-12-26T05:03:32.502Z,2.72
2022-12-26T05:06:18.221Z,2.92
2022-12-26T05:09:05.746Z,2.90
2022-12-26T05:11:34.594Z,2.53
2022-12-26T05:14:01.642Z,3.13
2022-12-26T05:16:47.707Z,3.33
2022-12-26T05:19:35.719Z,2.72
2022-12-26T05:22:23.740Z,2.75
2022-12-26T05:25:10.821Z,2.35
2022-12-26T05:27:59.504Z,2.40
2022-12-26T05:30:26.634Z,2.85
2022-12-26T05:33:12.171Z,2.38
2022-12-26T05:35:40.137Z,3.63
2022-12-26T05:38:09.699Z,3.08
2022-12-26T05:40:36.833Z,3.50
2022-12-26T05:43:03.954Z,3.38
2022-12-26T05:45:32.309Z,3.33
2022-12-26T05:48:00.606Z,4.03
2022-12-26T05:50:28.484Z,6.82
2022-12-26T05:52:59.313Z,3.15
2022-12-26T05:55:26.624Z,2.65
2022-12-26T05:57:53.776Z,3.25
2022-12-26T06:00:20.990Z,3.38
2022-12-26T06:02:49.090Z,3.78
2022-12-26T06:05:16.748Z,3.47
2022-12-26T06:07:44.295Z,2.92
2022-12-26T06:10:11.628Z,2.92
2022-12-26T06:12:38.927Z,2.58
2022-12-26T06:15:06.530Z,4.00
2022-12-26T06:17:41.374Z,3.38
2022-12-26T06:20:08.971Z,4.87
2022-12-26T06:22:36.120Z,2.92
2022-12-26T06:25:03.327Z,2.70
2022-12-26T06:27:30.379Z,2.50
2022-12-26T06:29:57.363Z,3.22
2022-12-26T06:32:24.411Z,5.25
2022-12-26T06:34:51.387Z,4.22
2022-12-26T06:37:18.374Z,3.20
2022-12-26T06:39:46.321Z,3.50
2022-12-26T06:42:13.233Z,3.92
2022-12-26T06:44:40.241Z,4.18
2022-12-26T06:47:07.240Z,3.20
2022-12-26T06:49:34.264Z,4.30
2022-12-26T06:52:01.408Z,4.25
2022-12-26T06:54:28.392Z,4.72
2022-12-26T06:56:55.404Z,3.17
2022-12-26T06:59:22.425Z,4.30
2022-12-26T07:01:49.630Z,3.95
2022-12-26T07:04:16.685Z,5.38
2022-12-26T07:06:43.743Z,2.97
2022-12-26T07:09:16.990Z,5.13
2022-12-26T07:11:47.515Z,2.65
2022-12-26T07:14:15.282Z,4.55
2022-12-26T07:16:44.225Z,3.47
2022-12-26T07:19:12.753Z,4.10
2022-12-26T07:21:41.008Z,2.83
2022-12-26T07:24:20.826Z,3.65
2022-12-26T07:26:48.664Z,3.97
2022-12-26T07:29:16.138Z,3.97
2022-12-26T07:31:43.346Z,3.78
2022-12-26T07:34:10.519Z,3.03
2022-12-26T07:36:37.853Z,3.72
2022-12-26T07:39:04.785Z,5.90
2022-12-26T07:41:51.300Z,3.65
2022-12-26T07:44:18.290Z,2.92
2022-12-26T07:46:46.864Z,3.83
2022-12-26T07:49:14.539Z,3.35
2022-12-26T07:51:42.795Z,3.08
2022-12-26T07:54:11.711Z,4.65
2022-12-26T07:56:40.317Z,4.85
2022-12-26T07:59:08.545Z,3.63
2022-12-26T08:01:35.723Z,3.63
2022-12-26T08:04:03.086Z,3.63
2022-12-26T08:06:30.104Z,3.95
2022-12-26T08:08:58.392Z,4.72
2022-12-26T08:11:25.644Z,4.13
2022-12-26T08:13:52.736Z,5.00
2022-12-26T08:16:20.132Z,4.88
2022-12-26T08:18:47.266Z,2.83
2022-12-26T08:21:14.700Z,5.40
2022-12-26T08:23:41.804Z,3.90
2022-12-26T08:26:11.939Z,4.53
2022-12-26T08:28:42.198Z,3.70
2022-12-26T08:31:12.632Z,4.78
2022-12-26T08:33:39.831Z,3.67
2022-12-26T08:36:09.616Z,3.92
2022-12-26T08:38:37.582Z,5.93
2022-12-26T08:41:04.981Z,2.75
2022-12-26T08:44:03.019Z,4.70
2022-12-26T08:46:21.516Z,4.72
2022-12-26T08:48:49.334Z,3.97
2022-12-26T08:51:19.755Z,4.07
2022-12-26T08:53:49.545Z,3.47
2022-12-26T08:56:20.433Z,3.88
2022-12-26T08:58:48.018Z,3.88
2022-12-26T09:01:21.257Z,5.03
2022-12-26T09:03:52.123Z,4.68
2022-12-26T09:06:19.285Z,5.50
2022-12-26T09:08:46.348Z,9.68
2022-12-26T09:11:16.188Z,5.63
2022-12-26T09:13:44.448Z,6.00
2022-12-26T09:16:14.389Z,5.95
2022-12-26T09:18:43.276Z,2.63
2022-12-26T09:21:11.908Z,3.53
2022-12-26T09:23:40.071Z,5.18
2022-12-26T09:26:16.343Z,2.38
2022-12-26T09:28:44.015Z,3.05
2022-12-26T09:31:14.350Z,4.38
2022-12-26T09:33:42.058Z,3.35
2022-12-26T09:36:15.077Z,4.95
2022-12-26T09:38:44.015Z,3.92
2022-12-26T09:41:20.514Z,3.08
2022-12-26T09:44:06.809Z,5.28
2022-12-26T09:49:22.747Z,4.05
2022-12-26T09:52:02.149Z,4.07
2022-12-26T09:54:32.061Z,8.23
2022-12-26T09:57:02.667Z,3.85
2022-12-26T09:59:34.330Z,6.20
2022-12-26T10:02:01.459Z,10.18
2022-12-26T10:04:30.674Z,3.45
2022-12-26T10:07:14.728Z,3.45
2022-12-26T10:10:04.773Z,4.57
2022-12-26T10:12:34.643Z,5.00
2022-12-26T10:15:07.706Z,4.40
2022-12-26T10:17:46.753Z,3.00
2022-12-26T10:20:28.272Z,5.47
2022-12-26T10:23:14.448Z,2.78
2022-12-26T10:25:56.721Z,4.07
2022-12-26T10:28:40.312Z,5.38
2022-12-26T10:31:21.444Z,4.47
2022-12-26T10:34:06.964Z,5.95
2022-12-26T10:36:36.840Z,5.03
2022-12-26T10:39:14.550Z,6.45
2022-12-26T10:41:56.249Z,5.78
2022-12-26T10:44:27.574Z,5.20
2022-12-26T10:46:55.042Z,5.10
2022-12-26T10:49:24.541Z,4.38
2022-12-26T10:51:54.238Z,5.50
2022-12-26T10:54:21.264Z,6.55
2022-12-26T10:56:51.675Z,3.75
2022-12-26T10:59:23.180Z,5.55
2022-12-26T11:01:50.905Z,4.72
2022-12-26T11:07:17.422Z,4.07
2022-12-26T11:09:45.973Z,2.97
2022-12-26T11:12:26.969Z,2.83
2022-12-26T11:15:00.154Z,4.85
2022-12-26T11:17:41.117Z,5.53
2022-12-26T11:20:14.671Z,4.50
2022-12-26T11:22:45.990Z,6.60
2022-12-26T11:25:21.364Z,3.22
2022-12-26T11:27:57.512Z,7.20
2022-12-26T11:30:29.459Z,4.38
2022-12-26T11:33:30.503Z,5.07
2022-12-26T11:36:12.064Z,2.75
2022-12-26T11:39:19.718Z,5.95
2022-12-26T11:41:49.240Z,4.90
2022-12-26T11:44:29.031Z,6.68
2022-12-26T11:47:18.059Z,4.90
2022-12-26T11:50:11.999Z,6.43
2022-12-26T11:52:51.870Z,4.40
2022-12-26T11:55:38.109Z,3.53
2022-12-26T12:00:41.415Z,3.35
2022-12-26T12:03:41.111Z,3.78
2022-12-26T12:06:27.426Z,2.85
2022-12-26T12:09:02.275Z,3.42
2022-12-26T12:11:42.679Z,3.92
2022-12-26T12:14:18.509Z,3.72
2022-12-26T12:19:31.512Z,2.70
2022-12-26T12:22:26.308Z,3.30
2022-12-26T12:25:02.456Z,4.13
2022-12-26T12:27:37.672Z,3.25
2022-12-26T12:30:28.821Z,2.33
2022-12-26T12:33:14.751Z,3.75
2022-12-26T12:35:45.777Z,3.28
2022-12-26T12:38:40.736Z,5.25
2022-12-26T12:41:20.743Z,4.07
2022-12-26T12:44:03.382Z,3.33
2022-12-26T12:46:45.519Z,2.47
2022-12-26T12:49:36.725Z,4.25
2022-12-26T12:52:06.780Z,4.93
2022-12-26T12:55:00.124Z,3.78
2022-12-26T12:57:37.289Z,3.25
2022-12-26T13:00:21.876Z,2.63
2022-12-26T13:03:02.349Z,2.35
2022-12-26T13:05:53.239Z,2.83
2022-12-26T13:08:44.387Z,2.30
2022-12-26T13:11:35.793Z,2.67
2022-12-26T13:14:19.366Z,3.08
2022-12-26T13:17:14.421Z,5.45
2022-12-26T13:19:51.585Z,3.10
2022-12-26T13:22:51.345Z,2.33
2022-12-26T13:25:20.124Z,2.50
2022-12-26T13:27:49.654Z,2.90
2022-12-26T13:30:17.965Z,4.15
2022-12-26T13:32:46.863Z,3.85
2022-12-26T13:35:51.308Z,3.80
2022-12-26T13:38:19.570Z,1.60
2022-12-26T13:41:21.633Z,2.17
2022-12-26T13:44:23.200Z,2.38
2022-12-26T13:46:50.292Z,3.97
2022-12-26T13:49:31.054Z,5.30
2022-12-26T13:52:32.777Z,3.20
2022-12-26T13:55:06.728Z,3.75
2022-12-26T13:57:40.272Z,3.28
2022-12-26T14:00:23.369Z,2.95
2022-12-26T14:03:21.355Z,3.55
2022-12-26T14:06:11.277Z,2.78
2022-12-26T14:08:56.952Z,2.05
2022-12-26T14:11:47.983Z,3.38
2022-12-26T14:14:36.187Z,2.25
2022-12-26T14:17:21.398Z,2.60
2022-12-26T14:20:19.043Z,3.65
2022-12-26T14:23:05.704Z,3.53
2022-12-26T14:25:50.971Z,2.92
2022-12-26T14:28:23.205Z,13.65
2022-12-26T14:31:05.446Z,10.75
2022-12-26T14:33:32.499Z,30.58
2022-12-26T14:36:21.316Z,22.85
2022-12-26T14:38:55.638Z,7.45
2022-12-26T14:41:42.672Z,2.97
2022-12-26T14:44:22.056Z,2.75
2022-12-26T14:46:49.396Z,2.72
2022-12-26T14:49:41.452Z,5.15
2022-12-26T14:52:23.811Z,6.13
2022-12-26T14:54:52.053Z,5.93
2022-12-26T14:57:48.352Z,4.82
2022-12-26T15:00:29.427Z,3.97
2022-12-26T15:02:59.637Z,3.20
2022-12-26T15:05:37.765Z,1.33
2022-12-26T15:08:23.602Z,1.42
2022-12-26T15:11:27.156Z,1.50
2022-12-26T15:14:18.654Z,1.58
2022-12-26T15:16:53.716Z,1.70
2022-12-26T15:19:50.734Z,1.42
2022-12-26T15:22:52.013Z,1.17
2022-12-26T15:25:56.814Z,1.00
2022-12-26T15:28:42.926Z,0.70
2022-12-26T15:31:25.011Z,1.42
2022-12-26T15:34:01.293Z,1.25
2022-12-26T15:36:58.284Z,1.00
2022-12-26T15:40:10.528Z,1.50
2022-12-26T15:42:55.057Z,1.42
2022-12-26T15:45:32.794Z,1.10
2022-12-26T15:48:14.924Z,1.40
2022-12-26T15:51:00.852Z,2.00
2022-12-26T15:53:43.118Z,1.08
2022-12-26T15:56:20.969Z,4.32
2022-12-26T15:58:57.461Z,10.43
2022-12-26T16:01:45.377Z,10.52
2022-12-26T16:04:27.255Z,4.47
2022-12-26T16:07:25.285Z,3.00
2022-12-26T16:09:55.028Z,2.38
2022-12-26T16:12:29.669Z,2.65
2022-12-26T16:15:12.084Z,3.75
2022-12-26T16:17:40.411Z,3.85
2022-12-26T16:20:55.721Z,2.00
2022-12-26T16:23:25.210Z,2.17
2022-12-26T16:25:54.827Z,3.17
2022-12-26T16:28:26.161Z,1.52
2022-12-26T16:30:53.489Z,1.50
2022-12-26T16:33:20.601Z,1.30
2022-12-26T16:35:47.586Z,1.20
2022-12-26T16:38:22.652Z,1.65
2022-12-26T16:40:51.610Z,4.15
2022-12-26T16:43:19.531Z,2.50
2022-12-26T16:45:49.714Z,2.78
2022-12-26T16:48:22.774Z,3.63
2022-12-26T16:50:52.521Z,2.13
2022-12-26T16:53:36.039Z,1.80
2022-12-26T16:56:34.270Z,1.27
2022-12-26T16:59:22.799Z,2.67
2022-12-26T17:01:59.709Z,1.60
2022-12-26T17:04:29.041Z,1.98
2022-12-26T17:07:15.861Z,1.77
2022-12-26T17:09:49.698Z,8.27
2022-12-26T17:12:37.386Z,7.38
2022-12-26T17:15:06.614Z,4.85
2022-12-26T17:17:36.448Z,2.13
2022-12-26T17:20:22.457Z,4.63
2022-12-26T17:22:51.234Z,2.45
2022-12-26T17:25:18.147Z,2.85
2022-12-26T17:27:46.254Z,2.38
2022-12-26T17:30:29.598Z,1.70
2022-12-26T17:33:22.198Z,2.17
2022-12-26T17:38:54.555Z,3.38
2022-12-26T17:41:21.809Z,2.20
2022-12-26T17:43:49.156Z,2.55
2022-12-26T17:46:18.242Z,2.05
2022-12-26T17:48:45.653Z,5.10
2022-12-26T17:51:16.472Z,5.65
2022-12-26T17:53:51.284Z,7.30
2022-12-26T17:56:24.317Z,11.02
2022-12-26T17:58:51.485Z,11.40
2022-12-26T18:01:21.908Z,9.65
2022-12-26T18:03:50.143Z,15.05
2022-12-26T18:06:18.235Z,21.77
2022-12-26T18:08:45.630Z,18.30
2022-12-26T18:11:14.553Z,13.05
2022-12-26T18:13:42.315Z,16.58
2022-12-26T18:16:15.269Z,15.73
2022-12-26T18:18:44.963Z,19.02
2022-12-26T18:21:14.356Z,26.75
2022-12-26T18:23:41.773Z,25.17
2022-12-26T18:26:25.044Z,25.83
2022-12-26T18:28:52.218Z,16.63
2022-12-26T18:31:19.614Z,16.60
2022-12-26T18:33:46.712Z,13.07
2022-12-26T18:36:15.281Z,12.10
2022-12-26T18:38:42.446Z,7.35
2022-12-26T18:41:14.727Z,8.27
2022-12-26T18:43:41.802Z,6.45
2022-12-26T18:46:24.735Z,4.03
2022-12-26T18:48:56.778Z,2.60
2022-12-26T18:51:26.450Z,3.88
2022-12-26T18:53:53.954Z,3.28
2022-12-26T18:56:22.891Z,2.67
2022-12-26T18:58:57.410Z,2.00
2022-12-26T19:01:25.674Z,2.38
2022-12-26T19:03:54.131Z,3.13
2022-12-26T19:06:26.754Z,1.52
2022-12-26T19:08:54.218Z,2.45
2022-12-26T19:11:21.783Z,4.18
2022-12-26T19:13:48.956Z,3.67
2022-12-26T19:16:16.378Z,3.42
2022-12-26T19:18:43.475Z,1.98
2022-12-26T19:21:15.385Z,2.08
2022-12-26T19:23:47.031Z,4.50
2022-12-26T19:26:17.279Z,1.77
2022-12-26T19:28:44.412Z,2.15
2022-12-26T19:31:16.603Z,1.67
2022-12-26T19:33:43.722Z,1.65
2022-12-26T19:36:11.081Z,1.70
2022-12-26T19:38:38.242Z,2.13
2022-12-26T19:41:07.842Z,1.75
2022-12-26T19:43:35.311Z,2.05
2022-12-26T19:46:21.286Z,1.88
2022-12-26T19:48:48.563Z,3.58
2022-12-26T19:51:17.335Z,4.60
2022-12-26T19:53:45.212Z,3.90
2022-12-26T19:56:16.207Z,1.10
2022-12-26T19:58:43.871Z,3.55
2022-12-26T20:01:20.095Z,4.18
2022-12-26T20:03:47.653Z,3.97
2022-12-26T20:06:17.564Z,2.67
2022-12-26T20:08:46.528Z,2.90
2022-12-26T20:11:19.790Z,4.90
2022-12-26T20:13:47.148Z,4.65
2022-12-26T20:16:45.955Z,3.60
2022-12-26T20:19:04.195Z,4.75
2022-12-26T20:21:31.448Z,4.13
2022-12-26T20:23:59.922Z,2.90
2022-12-26T20:26:28.078Z,2.03
2022-12-26T20:29:03.232Z,1.90
2022-12-26T20:31:33.166Z,2.17
2022-12-26T20:34:01.051Z,2.80
2022-12-26T20:36:33.815Z,3.10
2022-12-26T20:39:04.710Z,2.92
2022-12-26T20:41:32.161Z,3.25
2022-12-26T20:43:59.595Z,3.70
2022-12-26T20:46:29.430Z,2.78
2022-12-26T20:48:56.520Z,2.90
2022-12-26T20:51:29.059Z,5.15
2022-12-26T20:54:00.894Z,3.58
2022-12-26T20:56:29.259Z,4.25
2022-12-26T20:58:59.214Z,3.92
2022-12-26T21:01:27.656Z,3.30
2022-12-26T21:03:56.610Z,3.30
2022-12-26T21:06:27.707Z,5.35
2022-12-26T21:08:56.412Z,3.10
2022-12-26T21:11:24.870Z,3.63
2022-12-26T21:13:54.860Z,3.92
2022-12-26T21:16:34.075Z,3.33
2022-12-26T21:19:01.444Z,3.20
2022-12-26T21:21:31.408Z,2.22
2022-12-26T21:24:01.059Z,3.50
2022-12-26T21:26:28.816Z,3.10
2022-12-26T21:29:00.995Z,3.80
2022-12-26T21:31:29.331Z,4.15
2022-12-26T21:33:58.127Z,2.45
2022-12-26T21:36:25.947Z,6.15
2022-12-26T21:38:53.742Z,3.25
2022-12-26T21:41:21.668Z,3.58
2022-12-26T21:43:49.241Z,3.17
2022-12-26T21:46:20.727Z,3.03
2022-12-26T21:48:49.925Z,3.67
2022-12-26T21:51:18.686Z,2.25
2022-12-26T21:53:46.819Z,3.90
2022-12-26T21:56:17.048Z,2.70
2022-12-26T21:59:03.564Z,3.25
2022-12-26T22:01:30.971Z,3.28
2022-12-26T22:04:17.680Z,1.60
2022-12-26T22:06:44.667Z,4.15
2022-12-26T22:09:12.327Z,4.60
2022-12-26T22:11:57.808Z,3.80
2022-12-26T22:14:24.966Z,4.20
2022-12-26T22:16:53.947Z,3.55
2022-12-26T22:19:22.040Z,4.78
2022-12-26T22:21:49.053Z,4.38
2022-12-26T22:24:16.236Z,4.15
2022-12-26T22:26:43.182Z,3.35
2022-12-26T22:29:10.202Z,3.40
2022-12-26T22:31:38.584Z,2.63
2022-12-26T22:34:08.415Z,1.92
2022-12-26T22:36:36.092Z,4.32
2022-12-26T22:39:03.445Z,3.45
2022-12-26T22:41:30.621Z,3.65
2022-12-26T22:43:57.722Z,3.70
2022-12-26T22:46:25.509Z,3.33
2022-12-26T22:48:52.564Z,2.28
2022-12-26T22:51:22.926Z,1.77
2022-12-26T22:53:53.359Z,2.20
2022-12-26T22:56:20.570Z,2.78
2022-12-26T22:58:47.608Z,2.15
2022-12-26T23:01:17.265Z,3.75
2022-12-26T23:03:44.961Z,3.17
2022-12-26T23:06:18.318Z,4.97
2022-12-26T23:08:45.657Z,2.33
2022-12-26T23:11:12.942Z,3.60
2022-12-26T23:13:40.243Z,5.25
2022-12-26T23:16:38.353Z,3.42
2022-12-26T23:20:05.868Z,2.95
2022-12-26T23:22:33.561Z,6.45
2022-12-26T23:25:02.598Z,4.30
2022-12-26T23:27:48.113Z,4.28
2022-12-26T23:30:20.849Z,3.80
2022-12-26T23:32:51.405Z,2.55
2022-12-26T23:35:19.592Z,3.50
2022-12-26T23:37:46.657Z,4.18
2022-12-26T23:40:15.509Z,2.60
2022-12-26T23:42:42.532Z,4.03
2022-12-26T23:45:14.223Z,2.67
2022-12-26T23:47:42.936Z,4.80
2022-12-26T23:50:11.903Z,3.00
2022-12-26T23:52:39.236Z,5.45
2022-12-26T23:55:06.838Z,5.90
2022-12-26T23:57:33.872Z,2.92
